createdAt,value
2019-05-05T00:00:45.367Z,1004.09
2019-05-05T00:01:45.327Z,1004.08
2019-05-05T00:02:45.314Z,1004.12
2019-05-05T00:03:45.306Z,1004.12
2019-05-05T00:04:45.599Z,1004.08
2019-05-05T00:05:45.292Z,1004.09
2019-05-05T00:06:45.290Z,1004.09
2019-05-05T00:07:45.265Z,1004.08
2019-05-05T00:08:45.755Z,1004.09
2019-05-05T00:09:45.245Z,1004.07
2019-05-05T00:10:45.312Z,1004.08
2019-05-05T00:11:45.259Z,1004.05
2019-05-05T00:12:46.161Z,1004.06
2019-05-05T00:13:45.208Z,1004.07
2019-05-05T00:14:45.194Z,1004.12
2019-05-05T00:15:45.171Z,1004.09
2019-05-05T00:16:45.180Z,1004.13
2019-05-05T00:17:45.159Z,1004.10
2019-05-05T00:18:45.158Z,1004.14
2019-05-05T00:19:45.481Z,1004.12
2019-05-05T00:20:45.136Z,1004.15
2019-05-05T00:21:45.135Z,1004.10
2019-05-05T00:22:45.565Z,1004.09
2019-05-05T00:23:45.247Z,1004.09
2019-05-05T00:24:45.075Z,1004.18
2019-05-05T00:25:45.063Z,1004.19
2019-05-05T00:26:46.020Z,1004.21
2019-05-05T00:27:45.301Z,1004.17
2019-05-05T00:28:45.032Z,1004.20
2019-05-05T00:29:45.427Z,1004.21
2019-05-05T00:30:45.030Z,1004.21
2019-05-05T00:31:45.380Z,1004.17
2019-05-05T00:32:44.997Z,1004.18
2019-05-05T00:33:45.021Z,1004.19
2019-05-05T00:34:44.988Z,1004.20
2019-05-05T00:35:45.236Z,1004.18
2019-05-05T00:36:44.972Z,1004.17
2019-05-05T00:37:45.163Z,1004.21
2019-05-05T00:38:44.927Z,1004.21
2019-05-05T00:39:45.332Z,1004.23
2019-05-05T00:40:44.905Z,1004.25
2019-05-05T00:41:45.066Z,1004.27
2019-05-05T00:42:45.624Z,1004.29
2019-05-05T00:43:45.218Z,1004.23
2019-05-05T00:44:44.901Z,1004.29
2019-05-05T00:45:45.098Z,1004.28
2019-05-05T00:46:44.857Z,1004.30
2019-05-05T00:47:45.113Z,1004.30
2019-05-05T00:48:44.814Z,1004.30
2019-05-05T00:49:49.095Z,1004.30
2019-05-05T00:50:45.052Z,1004.31
2019-05-05T00:51:44.802Z,1004.34
2019-05-05T00:52:44.795Z,1004.35
2019-05-05T00:53:45.025Z,1004.33
2019-05-05T00:54:45.076Z,1004.37
2019-05-05T00:55:44.752Z,1004.34
2019-05-05T00:56:45.116Z,1004.37
2019-05-05T00:57:45.309Z,1004.34
2019-05-05T00:58:44.731Z,1004.36
2019-05-05T00:59:45.325Z,1004.38
2019-05-05T01:00:44.698Z,1004.32
2019-05-05T01:01:44.870Z,1004.36
2019-05-05T01:02:44.959Z,1004.36
2019-05-05T01:05:04.832Z,1004.36
2019-05-05T01:06:05.971Z,1004.35
2019-05-05T01:07:05.812Z,1004.39
2019-05-05T01:08:05.871Z,1004.37
2019-05-05T01:09:05.783Z,1004.36
2019-05-05T01:10:05.797Z,1004.36
2019-05-05T01:11:05.764Z,1004.37
2019-05-05T01:12:05.776Z,1004.37
2019-05-05T01:13:05.764Z,1004.41
2019-05-05T01:14:05.760Z,1004.38
2019-05-05T01:15:05.735Z,1004.39
2019-05-05T01:16:05.729Z,1004.43
2019-05-05T01:17:05.709Z,1004.43
2019-05-05T01:18:05.723Z,1004.40
2019-05-05T01:19:05.695Z,1004.41
2019-05-05T01:20:06.899Z,1004.49
2019-05-05T01:21:05.669Z,1004.45
2019-05-05T01:22:05.668Z,1004.44
2019-05-05T01:23:05.674Z,1004.45
2019-05-05T01:24:05.631Z,1004.43
2019-05-05T01:25:05.622Z,1004.43
2019-05-05T01:26:05.632Z,1004.44
2019-05-05T01:27:05.606Z,1004.37
2019-05-05T01:28:05.610Z,1004.40
2019-05-05T01:29:05.582Z,1004.43
2019-05-05T01:30:05.566Z,1004.44
2019-05-05T01:31:05.713Z,1004.46
2019-05-05T01:32:05.558Z,1004.44
2019-05-05T01:33:05.575Z,1004.45
2019-05-05T01:34:05.537Z,1004.46
2019-05-05T01:35:05.516Z,1004.48
2019-05-05T01:36:05.527Z,1004.41
2019-05-05T01:37:05.495Z,1004.43
2019-05-05T01:38:05.481Z,1004.43
2019-05-05T01:39:05.489Z,1004.41
2019-05-05T01:40:05.478Z,1004.43
2019-05-05T01:41:05.474Z,1004.39
2019-05-05T01:42:05.451Z,1004.39
2019-05-05T01:43:05.503Z,1004.41
2019-05-05T01:44:05.461Z,1004.46
2019-05-05T01:45:05.428Z,1004.43
2019-05-05T01:46:05.426Z,1004.42
2019-05-05T01:47:05.471Z,1004.49
2019-05-05T01:48:05.390Z,1004.46
2019-05-05T01:49:05.545Z,1004.51
2019-05-05T01:50:17.594Z,1004.51
2019-05-05T01:51:05.356Z,1004.51
2019-05-05T01:52:05.354Z,1004.50
2019-05-05T01:53:05.361Z,1004.48
2019-05-05T01:54:05.439Z,1004.49
2019-05-05T01:55:05.371Z,1004.48
2019-05-05T01:56:05.310Z,1004.49
2019-05-05T01:57:05.604Z,1004.49
2019-05-05T01:58:05.292Z,1004.47
2019-05-05T01:59:05.419Z,1004.48
2019-05-05T02:00:05.279Z,1004.45
2019-05-05T02:01:05.267Z,1004.46
2019-05-05T02:02:05.252Z,1004.49
2019-05-05T02:03:05.241Z,1004.44
2019-05-05T02:04:05.648Z,1004.45
2019-05-05T02:05:05.215Z,1004.45
2019-05-05T02:06:05.378Z,1004.40
2019-05-05T02:07:05.510Z,1004.48
2019-05-05T02:08:05.188Z,1004.45
2019-05-05T02:09:05.370Z,1004.44
2019-05-05T02:10:06.162Z,1004.47
2019-05-05T02:11:05.386Z,1004.50
2019-05-05T02:12:05.412Z,1004.49
2019-05-05T02:13:05.165Z,1004.46
2019-05-05T02:14:05.280Z,1004.47
2019-05-05T02:15:05.125Z,1004.47
2019-05-05T02:16:05.102Z,1004.43
2019-05-05T02:17:05.236Z,1004.46
2019-05-05T02:18:05.088Z,1004.46
2019-05-05T02:19:05.218Z,1004.52
2019-05-05T02:20:05.362Z,1004.51
2019-05-05T02:21:05.302Z,1004.49
2019-05-05T02:22:05.451Z,1004.45
2019-05-05T02:23:05.036Z,1004.44
2019-05-05T02:24:05.374Z,1004.45
2019-05-05T02:25:05.040Z,1004.45
2019-05-05T02:26:04.999Z,1004.46
2019-05-05T02:27:05.315Z,1004.47
2019-05-05T02:28:04.987Z,1004.49
2019-05-05T02:29:05.068Z,1004.49
2019-05-05T02:30:06.202Z,1004.47
2019-05-05T02:31:05.708Z,1004.47
2019-05-05T02:32:06.264Z,1004.46
2019-05-05T02:33:06.352Z,1004.53
2019-05-05T02:34:05.523Z,1004.58
2019-05-05T02:35:06.404Z,1004.57
2019-05-05T02:36:05.730Z,1004.57
2019-05-05T02:37:05.630Z,1004.56
2019-05-05T02:38:06.458Z,1004.54
2019-05-05T02:39:05.545Z,1004.54
2019-05-05T02:40:07.548Z,1004.55
2019-05-05T02:41:05.326Z,1004.53
2019-05-05T02:42:05.703Z,1004.58
2019-05-05T02:43:05.593Z,1004.56
2019-05-05T02:44:05.179Z,1004.57
2019-05-05T02:45:05.649Z,1004.58
2019-05-05T02:46:05.661Z,1004.61
2019-05-05T02:47:04.984Z,1004.63
2019-05-05T02:48:05.907Z,1004.62
2019-05-05T02:49:05.580Z,1004.63
2019-05-05T02:50:05.337Z,1004.61
2019-05-05T02:51:07.052Z,1004.63
2019-05-05T02:52:05.134Z,1004.63
2019-05-05T02:53:04.762Z,1004.59
2019-05-05T02:54:04.728Z,1004.69
2019-05-05T02:55:04.742Z,1004.70
2019-05-05T02:56:04.715Z,1004.69
2019-05-05T02:57:04.731Z,1004.67
2019-05-05T02:58:04.700Z,1004.62
2019-05-05T02:59:04.696Z,1004.63
2019-05-05T03:00:04.679Z,1004.57
2019-05-05T03:01:04.966Z,1004.62
2019-05-05T03:02:04.646Z,1004.59
2019-05-05T03:03:04.641Z,1004.66
2019-05-05T03:04:04.639Z,1004.60
2019-05-05T03:06:14.478Z,1004.68
2019-05-05T03:07:14.846Z,1004.70
2019-05-05T03:08:14.841Z,1004.72
2019-05-05T03:09:14.823Z,1004.73
2019-05-05T03:10:14.802Z,1004.73
2019-05-05T03:11:14.809Z,1004.73
2019-05-05T03:12:15.008Z,1004.73
2019-05-05T03:13:14.777Z,1004.71
2019-05-05T03:14:14.761Z,1004.72
2019-05-05T03:15:14.749Z,1004.76
2019-05-05T03:16:14.758Z,1004.80
2019-05-05T03:17:14.726Z,1004.80
2019-05-05T03:18:14.705Z,1004.79
2019-05-05T03:19:14.703Z,1004.74
2019-05-05T03:20:14.697Z,1004.76
2019-05-05T03:21:14.696Z,1004.75
2019-05-05T03:22:14.668Z,1004.76
2019-05-05T03:23:14.662Z,1004.78
2019-05-05T03:24:14.650Z,1004.76
2019-05-05T03:25:14.633Z,1004.85
2019-05-05T03:26:14.652Z,1004.83
2019-05-05T03:27:14.620Z,1004.85
2019-05-05T03:28:14.616Z,1004.83
2019-05-05T03:29:14.607Z,1004.87
2019-05-05T03:30:15.511Z,1004.89
2019-05-05T03:31:16.062Z,1004.88
2019-05-05T03:32:16.174Z,1004.87
2019-05-05T03:33:15.965Z,1004.89
2019-05-05T03:34:16.305Z,1004.86
2019-05-05T03:35:14.542Z,1004.90
2019-05-05T03:36:14.550Z,1004.84
2019-05-05T03:37:14.735Z,1004.90
2019-05-05T03:38:14.508Z,1004.91
2019-05-05T03:39:14.517Z,1004.90
2019-05-05T03:40:14.873Z,1004.92
2019-05-05T03:41:14.494Z,1004.89
2019-05-05T03:42:14.463Z,1004.91
2019-05-05T03:43:14.604Z,1004.90
2019-05-05T03:44:14.447Z,1004.92
2019-05-05T03:45:14.612Z,1004.90
2019-05-05T03:46:14.471Z,1004.90
2019-05-05T03:47:14.419Z,1004.91
2019-05-05T03:48:14.407Z,1004.94
2019-05-05T03:49:14.397Z,1004.93
2019-05-05T03:50:14.545Z,1004.93
2019-05-05T03:51:18.810Z,1004.96
2019-05-05T03:52:14.379Z,1004.94
2019-05-05T03:53:14.362Z,1005.00
2019-05-05T03:54:14.759Z,1004.98
2019-05-05T03:55:14.330Z,1004.98
2019-05-05T03:56:14.322Z,1004.99
2019-05-05T03:57:14.336Z,1005.04
2019-05-05T03:58:14.752Z,1005.03
2019-05-05T03:59:15.061Z,1005.08
2019-05-05T04:00:14.342Z,1005.04
2019-05-05T04:01:14.588Z,1005.07
2019-05-05T04:02:14.280Z,1005.07
2019-05-05T04:03:14.738Z,1005.12
2019-05-05T04:04:14.250Z,1005.07
2019-05-05T04:05:14.634Z,1005.09
2019-05-05T04:06:14.731Z,1005.11
2019-05-05T04:07:14.229Z,1005.11
2019-05-05T04:08:14.536Z,1005.09
2019-05-05T04:09:14.191Z,1005.11
2019-05-05T04:10:14.203Z,1005.14
2019-05-05T04:11:14.428Z,1005.15
2019-05-05T04:12:14.169Z,1005.13
2019-05-05T04:13:14.150Z,1005.14
2019-05-05T04:14:14.347Z,1005.14
2019-05-05T04:15:14.328Z,1005.15
2019-05-05T04:16:14.121Z,1005.15
2019-05-05T04:17:14.324Z,1005.18
2019-05-05T04:18:14.641Z,1005.18
2019-05-05T04:19:14.095Z,1005.21
2019-05-05T04:20:14.077Z,1005.18
2019-05-05T04:21:14.579Z,1005.19
2019-05-05T04:22:14.085Z,1005.24
2019-05-05T04:23:14.290Z,1005.24
2019-05-05T04:24:14.611Z,1005.25
2019-05-05T04:25:14.048Z,1005.26
2019-05-05T04:26:14.332Z,1005.22
2019-05-05T04:27:14.621Z,1005.21
2019-05-05T04:28:14.024Z,1005.19
2019-05-05T04:29:14.064Z,1005.20
2019-05-05T04:30:14.380Z,1005.19
2019-05-05T04:31:13.972Z,1005.18
2019-05-05T04:32:14.288Z,1005.24
2019-05-05T04:33:14.395Z,1005.24
2019-05-05T04:34:13.935Z,1005.25
2019-05-05T04:35:14.223Z,1005.21
2019-05-05T04:36:14.548Z,1005.25
2019-05-05T04:37:14.940Z,1005.27
2019-05-05T04:38:14.123Z,1005.27
2019-05-05T04:39:14.465Z,1005.29
2019-05-05T04:40:14.811Z,1005.35
2019-05-05T04:41:14.178Z,1005.35
2019-05-05T04:42:14.219Z,1005.38
2019-05-05T04:43:14.438Z,1005.33
2019-05-05T04:44:14.862Z,1005.42
2019-05-05T04:45:14.773Z,1005.40
2019-05-05T04:46:14.160Z,1005.41
2019-05-05T04:47:14.480Z,1005.41
2019-05-05T04:48:13.868Z,1005.47
2019-05-05T04:49:14.068Z,1005.48
2019-05-05T04:50:14.933Z,1005.49
2019-05-05T04:51:14.022Z,1005.47
2019-05-05T04:52:14.324Z,1005.49
2019-05-05T04:53:13.761Z,1005.55
2019-05-05T04:54:14.231Z,1005.52
2019-05-05T04:55:13.909Z,1005.55
2019-05-05T04:56:14.185Z,1005.54
2019-05-05T04:57:14.944Z,1005.50
2019-05-05T04:58:13.808Z,1005.53
2019-05-05T04:59:14.393Z,1005.55
2019-05-05T05:00:13.906Z,1005.53
2019-05-05T05:01:13.676Z,1005.55
2019-05-05T05:02:14.436Z,1005.52
2019-05-05T05:03:13.671Z,1005.51
2019-05-05T05:04:13.833Z,1005.52
2019-05-05T05:05:14.536Z,1005.53
2019-05-05T05:07:24.139Z,1005.62
2019-05-05T05:08:24.725Z,1005.63
2019-05-05T05:09:23.895Z,1005.66
2019-05-05T05:10:24.141Z,1005.72
2019-05-05T05:11:24.678Z,1005.70
2019-05-05T05:12:23.912Z,1005.76
2019-05-05T05:13:24.446Z,1005.76
2019-05-05T05:14:24.662Z,1005.78
2019-05-05T05:15:24.032Z,1005.76
2019-05-05T05:16:24.303Z,1005.74
2019-05-05T05:17:24.908Z,1005.73
2019-05-05T05:18:24.132Z,1005.72
2019-05-05T05:19:24.244Z,1005.73
2019-05-05T05:20:24.678Z,1005.71
2019-05-05T05:21:23.781Z,1005.74
2019-05-05T05:22:24.360Z,1005.74
2019-05-05T05:23:24.765Z,1005.78
2019-05-05T05:24:23.826Z,1005.78
2019-05-05T05:25:24.051Z,1005.87
2019-05-05T05:26:24.258Z,1005.85
2019-05-05T05:27:24.479Z,1005.84
2019-05-05T05:28:23.782Z,1005.86
2019-05-05T05:29:23.931Z,1005.84
2019-05-05T05:30:24.269Z,1005.84
2019-05-05T05:31:24.472Z,1005.85
2019-05-05T05:32:24.671Z,1005.90
2019-05-05T05:33:23.953Z,1005.90
2019-05-05T05:34:23.940Z,1005.90
2019-05-05T05:35:24.405Z,1005.91
2019-05-05T05:36:24.745Z,1005.92
2019-05-05T05:37:24.095Z,1005.98
2019-05-05T05:38:24.203Z,1005.96
2019-05-05T05:39:24.432Z,1005.95
2019-05-05T05:40:23.705Z,1005.95
2019-05-05T05:41:23.941Z,1005.96
2019-05-05T05:42:24.174Z,1005.97
2019-05-05T05:43:25.247Z,1005.95
2019-05-05T05:44:26.387Z,1005.98
2019-05-05T05:45:23.819Z,1005.98
2019-05-05T05:46:24.082Z,1006.00
2019-05-05T05:47:24.433Z,1005.99
2019-05-05T05:48:23.781Z,1006.00
2019-05-05T05:49:24.169Z,1006.02
2019-05-05T05:50:24.503Z,1006.05
2019-05-05T05:51:23.786Z,1006.05
2019-05-05T05:52:24.243Z,1006.04
2019-05-05T05:53:24.022Z,1006.05
2019-05-05T05:54:23.547Z,1006.09
2019-05-05T05:55:23.833Z,1006.08
2019-05-05T05:56:24.979Z,1006.03
2019-05-05T05:57:24.046Z,1006.10
2019-05-05T05:58:24.517Z,1006.14
2019-05-05T05:59:24.719Z,1006.13
2019-05-05T06:00:23.830Z,1006.17
2019-05-05T06:01:23.983Z,1006.20
2019-05-05T06:02:24.217Z,1006.19
2019-05-05T06:03:24.534Z,1006.24
2019-05-05T06:04:23.548Z,1006.20
2019-05-05T06:05:23.847Z,1006.24
2019-05-05T06:06:24.108Z,1006.26
2019-05-05T06:07:24.545Z,1006.25
2019-05-05T06:08:24.295Z,1006.28
2019-05-05T06:09:23.801Z,1006.27
2019-05-05T06:10:26.666Z,1006.31
2019-05-05T06:11:23.862Z,1006.33
2019-05-05T06:12:24.569Z,1006.37
2019-05-05T06:13:24.202Z,1006.41
2019-05-05T06:14:24.680Z,1006.39
2019-05-05T06:15:24.476Z,1006.37
2019-05-05T06:16:23.548Z,1006.45
2019-05-05T06:17:23.779Z,1006.46
2019-05-05T06:18:24.347Z,1006.47
2019-05-05T06:19:24.595Z,1006.46
2019-05-05T06:20:23.895Z,1006.52
2019-05-05T06:21:24.151Z,1006.55
2019-05-05T06:22:29.182Z,1006.53
2019-05-05T06:23:23.954Z,1006.55
2019-05-05T06:24:24.017Z,1006.52
2019-05-05T06:25:26.235Z,1006.56
2019-05-05T06:26:24.096Z,1006.54
2019-05-05T06:27:23.619Z,1006.50
2019-05-05T06:28:23.657Z,1006.51
2019-05-05T06:29:23.934Z,1006.50
2019-05-05T06:30:24.359Z,1006.51
2019-05-05T06:31:24.531Z,1006.55
2019-05-05T06:32:23.832Z,1006.58
2019-05-05T06:33:24.137Z,1006.56
2019-05-05T06:34:24.480Z,1006.58
2019-05-05T06:35:24.501Z,1006.56
2019-05-05T06:36:23.429Z,1006.57
2019-05-05T06:37:23.789Z,1006.52
2019-05-05T06:38:24.202Z,1006.55
2019-05-05T06:39:24.157Z,1006.57
2019-05-05T06:40:23.380Z,1006.63
2019-05-05T06:41:23.711Z,1006.61
2019-05-05T06:42:23.681Z,1006.57
2019-05-05T06:43:23.728Z,1006.56
2019-05-05T06:44:24.610Z,1006.62
2019-05-05T06:45:23.881Z,1006.59
2019-05-05T06:46:23.625Z,1006.53
2019-05-05T06:47:23.716Z,1006.59
2019-05-05T06:48:23.736Z,1006.60
2019-05-05T06:49:23.778Z,1006.61
2019-05-05T06:50:24.297Z,1006.64
2019-05-05T06:51:24.501Z,1006.64
2019-05-05T06:52:24.719Z,1006.66
2019-05-05T06:53:23.900Z,1006.69
2019-05-05T06:54:24.150Z,1006.64
2019-05-05T06:55:24.457Z,1006.67
2019-05-05T06:56:23.792Z,1006.64
2019-05-05T06:57:24.040Z,1006.66
2019-05-05T06:58:24.140Z,1006.66
2019-05-05T06:59:24.318Z,1006.66
2019-05-05T07:00:24.162Z,1006.66
2019-05-05T07:01:24.645Z,1006.69
2019-05-05T07:02:23.809Z,1006.64
2019-05-05T07:03:24.349Z,1006.67
2019-05-05T07:04:24.394Z,1006.67
2019-05-05T07:05:23.559Z,1006.64
2019-05-05T07:06:23.934Z,1006.64
2019-05-05T07:08:31.763Z,1006.59
2019-05-05T07:09:33.609Z,1006.57
2019-05-05T07:10:33.931Z,1006.60
2019-05-05T07:11:34.269Z,1006.57
2019-05-05T07:12:34.644Z,1006.61
2019-05-05T07:13:33.942Z,1006.61
2019-05-05T07:14:33.988Z,1006.60
2019-05-05T07:15:34.297Z,1006.60
2019-05-05T07:16:34.515Z,1006.61
2019-05-05T07:17:33.795Z,1006.63
2019-05-05T07:18:34.107Z,1006.65
2019-05-05T07:19:34.423Z,1006.67
2019-05-05T07:20:34.554Z,1006.67
2019-05-05T07:21:34.241Z,1006.66
2019-05-05T07:22:34.550Z,1006.64
2019-05-05T07:23:34.064Z,1006.66
2019-05-05T07:24:34.440Z,1006.64
2019-05-05T07:25:42.116Z,1006.68
2019-05-05T07:26:34.078Z,1006.71
2019-05-05T07:27:33.813Z,1006.71
2019-05-05T07:28:34.199Z,1006.72
2019-05-05T07:29:34.277Z,1006.74
2019-05-05T07:30:33.564Z,1006.71
2019-05-05T07:31:34.269Z,1006.74
2019-05-05T07:32:33.850Z,1006.78
2019-05-05T07:33:34.505Z,1006.74
2019-05-05T07:34:33.504Z,1006.72
2019-05-05T07:35:34.366Z,1006.75
2019-05-05T07:36:34.032Z,1006.79
2019-05-05T07:37:34.373Z,1006.80
2019-05-05T07:38:33.773Z,1006.83
2019-05-05T07:39:34.081Z,1006.82
2019-05-05T07:40:34.499Z,1006.80
2019-05-05T07:41:34.081Z,1006.86
2019-05-05T07:42:33.522Z,1006.83
2019-05-05T07:43:34.350Z,1006.81
2019-05-05T07:44:33.926Z,1006.81
2019-05-05T07:45:34.334Z,1006.87
2019-05-05T07:46:34.465Z,1006.86
2019-05-05T07:47:34.139Z,1006.81
2019-05-05T07:48:33.618Z,1006.81
2019-05-05T07:49:33.636Z,1006.80
2019-05-05T07:50:33.551Z,1006.87
2019-05-05T07:51:33.573Z,1006.88
2019-05-05T07:52:34.246Z,1006.89
2019-05-05T07:53:33.555Z,1006.90
2019-05-05T07:54:34.094Z,1006.89
2019-05-05T07:55:34.224Z,1006.90
2019-05-05T07:56:34.206Z,1006.84
2019-05-05T07:57:34.035Z,1006.94
2019-05-05T07:58:34.396Z,1006.90
2019-05-05T07:59:34.039Z,1006.89
2019-05-05T08:00:34.156Z,1006.95
2019-05-05T08:01:33.634Z,1006.95
2019-05-05T08:02:33.892Z,1006.94
2019-05-05T08:03:33.905Z,1006.98
2019-05-05T08:04:32.065Z,1006.95
2019-05-05T08:05:33.547Z,1006.93
2019-05-05T08:06:33.944Z,1006.91
2019-05-05T08:07:33.974Z,1006.91
2019-05-05T08:08:33.495Z,1006.94
2019-05-05T08:09:33.845Z,1006.97
2019-05-05T08:10:34.212Z,1006.97
2019-05-05T08:11:34.087Z,1006.99
2019-05-05T08:12:34.105Z,1007.04
2019-05-05T08:13:33.600Z,1006.97
2019-05-05T08:14:33.708Z,1007.01
2019-05-05T08:15:31.950Z,1006.92
2019-05-05T08:16:33.668Z,1006.96
2019-05-05T08:17:33.995Z,1006.97
2019-05-05T08:18:31.924Z,1006.94
2019-05-05T08:19:31.931Z,1006.94
2019-05-05T08:20:33.756Z,1007.01
2019-05-05T08:21:31.904Z,1006.91
2019-05-05T08:22:33.873Z,1006.97
2019-05-05T08:23:32.809Z,1006.97
2019-05-05T08:24:33.673Z,1006.91
2019-05-05T08:25:37.482Z,1006.95
2019-05-05T08:26:33.645Z,1006.92
2019-05-05T08:27:33.884Z,1006.97
2019-05-05T08:28:31.813Z,1006.97
2019-05-05T08:29:31.796Z,1006.97
2019-05-05T08:30:33.738Z,1006.96
2019-05-05T08:31:33.459Z,1006.95
2019-05-05T08:32:33.543Z,1006.93
2019-05-05T08:33:33.614Z,1006.90
2019-05-05T08:34:33.837Z,1006.91
2019-05-05T08:35:31.720Z,1006.91
2019-05-05T08:36:33.859Z,1006.93
2019-05-05T08:37:31.726Z,1006.98
2019-05-05T08:38:31.705Z,1007.00
2019-05-05T08:39:34.349Z,1007.00
2019-05-05T08:40:31.684Z,1006.97
2019-05-05T08:41:33.724Z,1006.95
2019-05-05T08:42:33.791Z,1006.93
2019-05-05T08:43:31.663Z,1006.96
2019-05-05T08:44:31.642Z,1006.97
2019-05-05T08:45:31.625Z,1007.00
2019-05-05T08:46:31.612Z,1006.97
2019-05-05T08:47:31.612Z,1006.99
2019-05-05T08:48:31.597Z,1006.97
2019-05-05T08:49:31.580Z,1006.98
2019-05-05T08:50:31.569Z,1006.99
2019-05-05T08:51:31.554Z,1007.00
2019-05-05T08:52:31.571Z,1007.01
2019-05-05T08:53:44.112Z,1006.95
2019-05-05T08:54:31.523Z,1006.95
2019-05-05T08:55:33.815Z,1006.95
2019-05-05T08:56:31.493Z,1006.94
2019-05-05T08:57:31.507Z,1006.96
2019-05-05T08:58:31.496Z,1006.93
2019-05-05T08:59:33.566Z,1006.96
2019-05-05T09:00:33.643Z,1006.98
2019-05-05T09:01:31.458Z,1006.96
2019-05-05T09:02:33.146Z,1006.91
2019-05-05T09:03:33.579Z,1006.96
2019-05-05T09:04:31.425Z,1006.96
2019-05-05T09:05:31.403Z,1006.97
2019-05-05T09:06:31.378Z,1006.97
2019-05-05T09:07:33.577Z,1006.95
2019-05-05T09:09:40.930Z,1006.93
2019-05-05T09:10:41.897Z,1006.95
2019-05-05T09:11:43.743Z,1006.96
2019-05-05T09:12:43.719Z,1006.96
2019-05-05T09:13:41.874Z,1006.96
2019-05-05T09:14:41.864Z,1006.98
2019-05-05T09:15:44.105Z,1006.92
2019-05-05T09:16:41.834Z,1006.93
2019-05-05T09:17:44.004Z,1006.92
2019-05-05T09:18:41.805Z,1006.94
2019-05-05T09:19:41.829Z,1006.99
2019-05-05T09:20:41.802Z,1006.94
2019-05-05T09:21:41.769Z,1006.98
2019-05-05T09:22:41.779Z,1006.95
2019-05-05T09:23:56.558Z,1006.96
2019-05-05T09:24:41.745Z,1006.97
2019-05-05T09:25:41.726Z,1006.96
2019-05-05T09:26:43.588Z,1006.97
2019-05-05T09:27:41.722Z,1007.02
2019-05-05T09:28:41.719Z,1007.07
2019-05-05T09:29:43.784Z,1006.99
2019-05-05T09:30:41.685Z,1006.97
2019-05-05T09:31:41.674Z,1006.97
2019-05-05T09:32:43.727Z,1006.98
2019-05-05T09:33:41.658Z,1006.94
2019-05-05T09:34:43.612Z,1007.00
2019-05-05T09:35:43.631Z,1006.93
2019-05-05T09:36:43.830Z,1006.96
2019-05-05T09:37:41.600Z,1006.91
2019-05-05T09:38:41.607Z,1006.91
2019-05-05T09:39:43.496Z,1006.93
2019-05-05T09:40:43.801Z,1006.92
2019-05-05T09:41:41.560Z,1006.97
2019-05-05T09:42:41.546Z,1006.98
2019-05-05T09:43:41.565Z,1006.90
2019-05-05T09:44:43.644Z,1006.90
2019-05-05T09:45:41.516Z,1006.89
2019-05-05T09:46:41.501Z,1006.89
2019-05-05T09:47:41.501Z,1006.85
2019-05-05T09:48:41.500Z,1007.01
2019-05-05T09:49:41.483Z,1006.90
2019-05-05T09:50:43.471Z,1006.86
2019-05-05T09:51:41.442Z,1006.91
2019-05-05T09:52:41.445Z,1006.94
2019-05-05T09:53:41.468Z,1006.90
2019-05-05T09:54:43.267Z,1006.83
2019-05-05T09:55:41.428Z,1006.88
2019-05-05T09:56:41.406Z,1006.83
2019-05-05T09:57:43.639Z,1006.86
2019-05-05T09:58:41.389Z,1006.89
2019-05-05T09:59:41.373Z,1006.88
2019-05-05T10:00:41.348Z,1006.88
2019-05-05T10:01:41.339Z,1006.89
2019-05-05T10:02:41.328Z,1006.87
2019-05-05T10:03:41.332Z,1006.83
2019-05-05T10:04:41.309Z,1006.87
2019-05-05T10:05:41.313Z,1006.90
2019-05-05T10:06:41.298Z,1006.88
2019-05-05T10:07:41.281Z,1006.89
2019-05-05T10:08:41.290Z,1006.86
2019-05-05T10:09:41.241Z,1006.88
2019-05-05T10:10:41.225Z,1006.86
2019-05-05T10:11:41.224Z,1006.84
2019-05-05T10:12:41.204Z,1006.93
2019-05-05T10:13:41.215Z,1006.93
2019-05-05T10:14:41.227Z,1006.91
2019-05-05T10:15:41.195Z,1006.92
2019-05-05T10:16:41.172Z,1006.89
2019-05-05T10:17:41.174Z,1006.91
2019-05-05T10:18:41.157Z,1006.87
2019-05-05T10:19:41.161Z,1006.90
2019-05-05T10:20:41.123Z,1006.91
2019-05-05T10:21:41.112Z,1006.88
2019-05-05T10:22:41.116Z,1006.89
2019-05-05T10:23:41.106Z,1006.91
2019-05-05T10:24:41.115Z,1006.94
2019-05-05T10:25:41.078Z,1006.86
2019-05-05T10:26:41.058Z,1006.85
2019-05-05T10:27:44.850Z,1006.82
2019-05-05T10:28:41.043Z,1006.84
2019-05-05T10:29:41.054Z,1006.85
2019-05-05T10:30:41.010Z,1006.89
2019-05-05T10:31:41.008Z,1006.88
2019-05-05T10:32:41.003Z,1006.87
2019-05-05T10:33:40.981Z,1006.94
2019-05-05T10:34:40.980Z,1006.91
2019-05-05T10:35:40.957Z,1006.87
2019-05-05T10:36:40.935Z,1006.85
2019-05-05T10:37:40.931Z,1006.92
2019-05-05T10:38:40.917Z,1006.83
2019-05-05T10:39:40.919Z,1006.82
2019-05-05T10:40:40.908Z,1006.95
2019-05-05T10:41:40.885Z,1006.95
2019-05-05T10:42:40.878Z,1006.92
2019-05-05T10:43:40.866Z,1006.99
2019-05-05T10:44:40.892Z,1007.05
2019-05-05T10:45:40.839Z,1006.95
2019-05-05T10:46:41.815Z,1006.97
2019-05-05T10:47:40.829Z,1007.01
2019-05-05T10:48:40.815Z,1006.93
2019-05-05T10:49:40.810Z,1006.97
2019-05-05T10:50:40.794Z,1006.93
2019-05-05T10:51:40.771Z,1006.93
2019-05-05T10:52:40.771Z,1006.91
2019-05-05T10:53:40.767Z,1006.90
2019-05-05T10:54:44.611Z,1006.89
2019-05-05T10:55:40.735Z,1006.91
2019-05-05T10:56:40.724Z,1006.94
2019-05-05T10:57:40.726Z,1006.88
2019-05-05T10:58:40.701Z,1006.91
2019-05-05T10:59:40.703Z,1006.97
2019-05-05T11:00:40.696Z,1006.93
2019-05-05T11:01:40.653Z,1006.92
2019-05-05T11:02:40.648Z,1006.91
2019-05-05T11:03:40.632Z,1006.92
2019-05-05T11:04:40.659Z,1006.91
2019-05-05T11:05:40.620Z,1006.95
2019-05-05T11:06:40.620Z,1006.94
2019-05-05T11:07:40.590Z,1006.96
2019-05-05T11:08:40.582Z,1006.96
2019-05-05T23:03:43.771Z,1008.35
2019-05-05T23:04:44.776Z,1008.36
2019-05-05T23:05:44.742Z,1008.37
2019-05-05T23:06:44.721Z,1008.37
2019-05-05T23:07:44.733Z,1008.36
2019-05-05T23:08:45.285Z,1008.35
2019-05-05T23:09:44.721Z,1008.35
2019-05-05T23:10:44.685Z,1008.35
2019-05-05T23:11:44.693Z,1008.32
2019-05-05T23:12:44.663Z,1008.37
2019-05-05T23:13:44.654Z,1008.33
2019-05-05T23:14:44.647Z,1008.35
2019-05-05T23:15:44.625Z,1008.32
2019-05-05T23:16:44.606Z,1008.32
2019-05-05T23:17:44.604Z,1008.30
2019-05-05T23:18:44.585Z,1008.32
2019-05-05T23:19:44.613Z,1008.34
2019-05-05T23:20:44.627Z,1008.32
2019-05-05T23:21:44.555Z,1008.31
2019-05-05T23:22:44.583Z,1008.34
2019-05-05T23:23:44.554Z,1008.35
2019-05-05T23:24:45.256Z,1008.34
2019-05-05T23:25:45.753Z,1008.31
2019-05-05T23:26:44.502Z,1008.32
2019-05-05T23:27:44.502Z,1008.30
2019-05-05T23:28:44.506Z,1008.28
2019-05-05T23:29:44.642Z,1008.27
2019-05-05T23:30:44.819Z,1008.22
2019-05-05T23:31:44.627Z,1008.25
2019-05-05T23:32:44.439Z,1008.23
2019-05-05T23:33:45.348Z,1008.20
2019-05-05T23:34:44.574Z,1008.16
2019-05-05T23:35:44.442Z,1008.20
2019-05-05T23:36:44.498Z,1008.19
2019-05-05T23:37:44.859Z,1008.16
2019-05-05T23:38:44.990Z,1008.18
2019-05-05T23:39:44.367Z,1008.14
2019-05-05T23:40:44.361Z,1008.14
2019-05-05T23:41:44.345Z,1008.16
2019-05-05T23:42:44.326Z,1008.12
2019-05-05T23:43:45.098Z,1008.14
2019-05-05T23:44:44.310Z,1008.16
2019-05-05T23:45:44.880Z,1008.13
2019-05-05T23:46:44.293Z,1008.13
2019-05-05T23:47:44.800Z,1008.08
2019-05-05T23:48:44.264Z,1008.10
2019-05-05T23:49:44.257Z,1008.10
2019-05-05T23:50:44.622Z,1008.11
2019-05-05T23:51:44.231Z,1008.16
2019-05-05T23:52:44.420Z,1008.11
2019-05-05T23:53:44.550Z,1008.11
2019-05-05T23:54:44.718Z,1008.09
2019-05-05T23:55:44.217Z,1008.04
2019-05-05T23:56:44.253Z,1008.08
2019-05-05T23:57:44.174Z,1008.06
2019-05-05T23:58:44.289Z,1008.08
2019-05-05T23:59:44.198Z,1008.04
